sensor_id;sensor_type;location;lat;lon;timestamp;temperature;humidity
13482;DHT22;6813;60.352;15.746;2024-03-07T00:00:21;-0.70;99.90
13482;DHT22;6813;60.352;15.746;2024-03-07T00:02:48;-0.80;99.90
13482;DHT22;6813;60.352;15.746;2024-03-07T00:05:18;-0.80;99.90
13482;DHT22;6813;60.352;15.746;2024-03-07T00:07:44;-0.80;99.90
13482;DHT22;6813;60.352;15.746;2024-03-07T00:10:10;-0.80;99.90
13482;DHT22;6813;60.352;15.746;2024-03-07T00:12:37;-0.90;99.90
13482;DHT22;6813;60.352;15.746;2024-03-07T00:15:05;-0.90;99.90
13482;DHT22;6813;60.352;15.746;2024-03-07T00:17:31;-0.90;99.90
13482;DHT22;6813;60.352;15.746;2024-03-07T00:19:56;-0.90;99.90
13482;DHT22;6813;60.352;15.746;2024-03-07T00:22:23;-0.90;99.90
13482;DHT22;6813;60.352;15.746;2024-03-07T00:24:49;-0.80;99.90
13482;DHT22;6813;60.352;15.746;2024-03-07T00:27:16;-0.80;99.90
13482;DHT22;6813;60.352;15.746;2024-03-07T00:29:41;-0.70;99.90
13482;DHT22;6813;60.352;15.746;2024-03-07T00:32:07;-0.70;99.90
13482;DHT22;6813;60.352;15.746;2024-03-07T00:34:33;-0.70;99.90
13482;DHT22;6813;60.352;15.746;2024-03-07T00:36:59;-0.70;99.90
13482;DHT22;6813;60.352;15.746;2024-03-07T00:39:25;-0.80;99.90
13482;DHT22;6813;60.352;15.746;2024-03-07T00:41:51;-0.80;99.90
13482;DHT22;6813;60.352;15.746;2024-03-07T00:44:17;-0.80;99.90
13482;DHT22;6813;60.352;15.746;2024-03-07T00:46:43;-0.90;99.90
13482;DHT22;6813;60.352;15.746;2024-03-07T00:49:09;-0.90;99.90
13482;DHT22;6813;60.352;15.746;2024-03-07T00:51:35;-0.90;99.90
13482;DHT22;6813;60.352;15.746;2024-03-07T00:54:00;-0.90;99.90
13482;DHT22;6813;60.352;15.746;2024-03-07T00:56:26;-1.00;99.90
13482;DHT22;6813;60.352;15.746;2024-03-07T00:58:53;-1.20;99.90
13482;DHT22;6813;60.352;15.746;2024-03-07T01:01:19;-1.20;99.90
13482;DHT22;6813;60.352;15.746;2024-03-07T01:03:45;-1.20;99.90
13482;DHT22;6813;60.352;15.746;2024-03-07T01:06:11;-1.10;99.90
13482;DHT22;6813;60.352;15.746;2024-03-07T01:08:37;-1.10;99.90
13482;DHT22;6813;60.352;15.746;2024-03-07T01:11:04;-1.00;99.90
13482;DHT22;6813;60.352;15.746;2024-03-07T01:13:39;-1.00;99.90
13482;DHT22;6813;60.352;15.746;2024-03-07T01:16:05;-1.10;99.90
13482;DHT22;6813;60.352;15.746;2024-03-07T01:18:31;-1.10;99.90
13482;DHT22;6813;60.352;15.746;2024-03-07T01:21:01;-1.20;99.90
13482;DHT22;6813;60.352;15.746;2024-03-07T01:23:27;-1.20;99.90
13482;DHT22;6813;60.352;15.746;2024-03-07T01:25:56;-1.10;99.90
13482;DHT22;6813;60.352;15.746;2024-03-07T01:28:23;-1.10;99.90
13482;DHT22;6813;60.352;15.746;2024-03-07T01:30:49;-1.10;99.90
13482;DHT22;6813;60.352;15.746;2024-03-07T01:33:15;-1.10;99.90
13482;DHT22;6813;60.352;15.746;2024-03-07T01:35:41;-1.10;99.90
13482;DHT22;6813;60.352;15.746;2024-03-07T01:38:07;-1.00;99.90
13482;DHT22;6813;60.352;15.746;2024-03-07T01:40:35;-1.10;99.90
13482;DHT22;6813;60.352;15.746;2024-03-07T01:43:04;-1.10;99.90
13482;DHT22;6813;60.352;15.746;2024-03-07T01:45:31;-1.30;99.90
13482;DHT22;6813;60.352;15.746;2024-03-07T01:47:57;-1.20;99.90
13482;DHT22;6813;60.352;15.746;2024-03-07T01:50:23;-1.30;99.90
13482;DHT22;6813;60.352;15.746;2024-03-07T01:52:50;-1.30;99.90
13482;DHT22;6813;60.352;15.746;2024-03-07T01:55:17;-1.20;99.90
13482;DHT22;6813;60.352;15.746;2024-03-07T01:57:44;-1.20;99.90
13482;DHT22;6813;60.352;15.746;2024-03-07T02:00:11;-1.30;99.90
13482;DHT22;6813;60.352;15.746;2024-03-07T02:02:37;-1.30;99.90
13482;DHT22;6813;60.352;15.746;2024-03-07T02:05:03;-1.20;99.90
13482;DHT22;6813;60.352;15.746;2024-03-07T02:07:30;-1.10;99.90
13482;DHT22;6813;60.352;15.746;2024-03-07T02:10:04;-1.10;99.90
13482;DHT22;6813;60.352;15.746;2024-03-07T02:12:30;-1.20;99.90
13482;DHT22;6813;60.352;15.746;2024-03-07T02:14:59;-1.20;99.90
13482;DHT22;6813;60.352;15.746;2024-03-07T02:17:27;-1.20;99.90
13482;DHT22;6813;60.352;15.746;2024-03-07T02:19:53;-1.20;99.90
13482;DHT22;6813;60.352;15.746;2024-03-07T02:22:19;-1.10;99.90
13482;DHT22;6813;60.352;15.746;2024-03-07T02:24:45;-1.20;99.90
13482;DHT22;6813;60.352;15.746;2024-03-07T02:27:12;-1.30;99.90
13482;DHT22;6813;60.352;15.746;2024-03-07T02:29:42;-1.30;99.90
13482;DHT22;6813;60.352;15.746;2024-03-07T02:32:08;-1.30;99.90
13482;DHT22;6813;60.352;15.746;2024-03-07T02:34:35;-1.40;99.90
13482;DHT22;6813;60.352;15.746;2024-03-07T02:37:01;-1.50;99.90
13482;DHT22;6813;60.352;15.746;2024-03-07T02:39:27;-1.60;99.90
13482;DHT22;6813;60.352;15.746;2024-03-07T02:41:53;-1.60;99.90
13482;DHT22;6813;60.352;15.746;2024-03-07T02:44:19;-1.60;99.90
13482;DHT22;6813;60.352;15.746;2024-03-07T02:46:45;-1.50;99.90
13482;DHT22;6813;60.352;15.746;2024-03-07T02:49:13;-1.50;99.90
13482;DHT22;6813;60.352;15.746;2024-03-07T02:51:38;-1.50;99.90
13482;DHT22;6813;60.352;15.746;2024-03-07T02:54:04;-1.50;99.90
13482;DHT22;6813;60.352;15.746;2024-03-07T02:56:31;-1.50;99.90
13482;DHT22;6813;60.352;15.746;2024-03-07T02:58:57;-1.40;99.90
13482;DHT22;6813;60.352;15.746;2024-03-07T03:01:22;-1.50;99.90
13482;DHT22;6813;60.352;15.746;2024-03-07T03:03:48;-1.40;99.90
13482;DHT22;6813;60.352;15.746;2024-03-07T03:06:14;-1.50;99.90
13482;DHT22;6813;60.352;15.746;2024-03-07T03:08:40;-1.60;99.90
13482;DHT22;6813;60.352;15.746;2024-03-07T03:11:06;-1.70;99.90
13482;DHT22;6813;60.352;15.746;2024-03-07T03:13:37;-1.60;99.90
13482;DHT22;6813;60.352;15.746;2024-03-07T03:16:04;-1.50;99.90
13482;DHT22;6813;60.352;15.746;2024-03-07T03:18:32;-1.60;99.90
13482;DHT22;6813;60.352;15.746;2024-03-07T03:20:59;-1.60;99.90
13482;DHT22;6813;60.352;15.746;2024-03-07T03:23:25;-1.60;99.90
13482;DHT22;6813;60.352;15.746;2024-03-07T03:25:51;-1.70;99.90
13482;DHT22;6813;60.352;15.746;2024-03-07T03:28:17;-1.80;99.90
13482;DHT22;6813;60.352;15.746;2024-03-07T03:30:44;-1.80;99.90
13482;DHT22;6813;60.352;15.746;2024-03-07T03:33:11;-1.80;99.90
13482;DHT22;6813;60.352;15.746;2024-03-07T03:35:37;-1.90;99.90
13482;DHT22;6813;60.352;15.746;2024-03-07T03:38:03;-2.00;99.90
13482;DHT22;6813;60.352;15.746;2024-03-07T03:40:29;-2.00;99.90
13482;DHT22;6813;60.352;15.746;2024-03-07T03:42:54;-2.10;99.90
13482;DHT22;6813;60.352;15.746;2024-03-07T03:45:20;-2.10;99.90
13482;DHT22;6813;60.352;15.746;2024-03-07T03:47:46;-2.00;99.90
13482;DHT22;6813;60.352;15.746;2024-03-07T03:50:13;-1.90;99.90
13482;DHT22;6813;60.352;15.746;2024-03-07T03:52:39;-1.90;99.90
13482;DHT22;6813;60.352;15.746;2024-03-07T03:55:06;-1.90;99.90
13482;DHT22;6813;60.352;15.746;2024-03-07T03:57:33;-2.10;99.90
13482;DHT22;6813;60.352;15.746;2024-03-07T04:00:04;-2.20;99.90
13482;DHT22;6813;60.352;15.746;2024-03-07T04:02:38;-2.20;99.90
13482;DHT22;6813;60.352;15.746;2024-03-07T04:05:04;-2.20;99.90
13482;DHT22;6813;60.352;15.746;2024-03-07T04:07:30;-2.10;99.90
13482;DHT22;6813;60.352;15.746;2024-03-07T04:09:58;-2.20;99.90
13482;DHT22;6813;60.352;15.746;2024-03-07T04:12:24;-2.10;99.90
13482;DHT22;6813;60.352;15.746;2024-03-07T04:14:53;-2.20;99.90
13482;DHT22;6813;60.352;15.746;2024-03-07T04:17:22;-2.20;99.90
13482;DHT22;6813;60.352;15.746;2024-03-07T04:19:48;-2.20;99.90
13482;DHT22;6813;60.352;15.746;2024-03-07T04:22:14;-2.10;99.90
13482;DHT22;6813;60.352;15.746;2024-03-07T04:24:40;-2.10;99.90
13482;DHT22;6813;60.352;15.746;2024-03-07T04:27:06;-2.10;99.90
13482;DHT22;6813;60.352;15.746;2024-03-07T04:29:33;-2.20;99.90
13482;DHT22;6813;60.352;15.746;2024-03-07T04:32:00;-2.20;99.90
13482;DHT22;6813;60.352;15.746;2024-03-07T04:34:29;-2.10;99.90
13482;DHT22;6813;60.352;15.746;2024-03-07T04:37:00;-1.90;99.90
13482;DHT22;6813;60.352;15.746;2024-03-07T04:39:31;-1.90;99.90
13482;DHT22;6813;60.352;15.746;2024-03-07T04:42:01;-1.90;99.90
13482;DHT22;6813;60.352;15.746;2024-03-07T04:44:27;-1.80;99.90
13482;DHT22;6813;60.352;15.746;2024-03-07T04:46:53;-1.80;99.90
13482;DHT22;6813;60.352;15.746;2024-03-07T04:49:26;-1.80;99.90
13482;DHT22;6813;60.352;15.746;2024-03-07T04:51:53;-1.90;99.90
13482;DHT22;6813;60.352;15.746;2024-03-07T04:54:20;-2.00;99.90
13482;DHT22;6813;60.352;15.746;2024-03-07T04:56:47;-2.10;99.90
13482;DHT22;6813;60.352;15.746;2024-03-07T04:59:13;-2.10;99.90
13482;DHT22;6813;60.352;15.746;2024-03-07T05:01:39;-2.20;99.90
13482;DHT22;6813;60.352;15.746;2024-03-07T05:04:06;-2.40;99.90
13482;DHT22;6813;60.352;15.746;2024-03-07T05:06:32;-2.50;99.90
13482;DHT22;6813;60.352;15.746;2024-03-07T05:09:06;-2.60;99.90
13482;DHT22;6813;60.352;15.746;2024-03-07T05:11:33;-2.60;99.90
13482;DHT22;6813;60.352;15.746;2024-03-07T05:13:59;-2.70;99.90
13482;DHT22;6813;60.352;15.746;2024-03-07T05:16:29;-2.70;99.90
13482;DHT22;6813;60.352;15.746;2024-03-07T05:18:56;-2.70;99.90
13482;DHT22;6813;60.352;15.746;2024-03-07T05:21:25;-2.60;99.90
13482;DHT22;6813;60.352;15.746;2024-03-07T05:24:07;-2.60;99.90
13482;DHT22;6813;60.352;15.746;2024-03-07T05:26:36;-2.60;99.90
13482;DHT22;6813;60.352;15.746;2024-03-07T05:29:10;-2.50;99.90
13482;DHT22;6813;60.352;15.746;2024-03-07T05:31:37;-2.50;99.90
13482;DHT22;6813;60.352;15.746;2024-03-07T05:34:05;-2.50;99.90
13482;DHT22;6813;60.352;15.746;2024-03-07T05:36:35;-2.40;99.90
13482;DHT22;6813;60.352;15.746;2024-03-07T05:39:01;-2.40;99.90
13482;DHT22;6813;60.352;15.746;2024-03-07T05:41:33;-2.50;99.90
13482;DHT22;6813;60.352;15.746;2024-03-07T05:43:59;-2.50;99.90
13482;DHT22;6813;60.352;15.746;2024-03-07T05:46:25;-2.40;99.90
13482;DHT22;6813;60.352;15.746;2024-03-07T05:48:53;-2.40;99.90
13482;DHT22;6813;60.352;15.746;2024-03-07T05:51:24;-2.40;99.90
13482;DHT22;6813;60.352;15.746;2024-03-07T05:53:50;-2.40;99.90
13482;DHT22;6813;60.352;15.746;2024-03-07T05:56:17;-2.40;99.90
13482;DHT22;6813;60.352;15.746;2024-03-07T05:58:43;-2.30;99.90
13482;DHT22;6813;60.352;15.746;2024-03-07T06:01:08;-2.20;99.90
13482;DHT22;6813;60.352;15.746;2024-03-07T06:03:34;-2.00;99.90
13482;DHT22;6813;60.352;15.746;2024-03-07T06:06:00;-1.80;99.90
13482;DHT22;6813;60.352;15.746;2024-03-07T06:08:26;-1.60;99.90
13482;DHT22;6813;60.352;15.746;2024-03-07T06:10:52;-1.30;99.90
13482;DHT22;6813;60.352;15.746;2024-03-07T06:13:18;-1.00;99.90
13482;DHT22;6813;60.352;15.746;2024-03-07T06:15:45;-0.80;99.90
13482;DHT22;6813;60.352;15.746;2024-03-07T06:18:12;-0.50;99.90
13482;DHT22;6813;60.352;15.746;2024-03-07T06:20:43;-0.20;99.90
13482;DHT22;6813;60.352;15.746;2024-03-07T06:23:09;0.10;99.90
13482;DHT22;6813;60.352;15.746;2024-03-07T06:25:37;0.30;99.90
13482;DHT22;6813;60.352;15.746;2024-03-07T06:28:13;0.50;99.90
13482;DHT22;6813;60.352;15.746;2024-03-07T06:30:44;0.80;99.90
13482;DHT22;6813;60.352;15.746;2024-03-07T06:33:10;1.10;99.90
13482;DHT22;6813;60.352;15.746;2024-03-07T06:35:36;1.30;99.90
13482;DHT22;6813;60.352;15.746;2024-03-07T06:38:06;1.60;99.90
13482;DHT22;6813;60.352;15.746;2024-03-07T06:40:34;1.80;99.90
13482;DHT22;6813;60.352;15.746;2024-03-07T06:42:59;2.20;99.90
13482;DHT22;6813;60.352;15.746;2024-03-07T06:45:25;2.30;99.90
13482;DHT22;6813;60.352;15.746;2024-03-07T06:47:51;2.50;99.90
13482;DHT22;6813;60.352;15.746;2024-03-07T06:50:21;2.70;99.90
13482;DHT22;6813;60.352;15.746;2024-03-07T06:52:47;3.00;99.90
13482;DHT22;6813;60.352;15.746;2024-03-07T06:55:17;3.30;99.90
13482;DHT22;6813;60.352;15.746;2024-03-07T06:57:44;3.60;99.90
13482;DHT22;6813;60.352;15.746;2024-03-07T07:00:14;3.90;99.90
13482;DHT22;6813;60.352;15.746;2024-03-07T07:02:44;4.10;99.90
13482;DHT22;6813;60.352;15.746;2024-03-07T07:05:10;4.50;99.90
13482;DHT22;6813;60.352;15.746;2024-03-07T07:07:50;4.80;99.90
13482;DHT22;6813;60.352;15.746;2024-03-07T07:10:18;5.00;99.90
13482;DHT22;6813;60.352;15.746;2024-03-07T07:12:50;5.30;99.90
13482;DHT22;6813;60.352;15.746;2024-03-07T07:15:20;5.50;99.90
13482;DHT22;6813;60.352;15.746;2024-03-07T07:17:47;5.80;99.90
13482;DHT22;6813;60.352;15.746;2024-03-07T07:20:14;6.00;99.90
13482;DHT22;6813;60.352;15.746;2024-03-07T07:22:44;6.30;99.90
13482;DHT22;6813;60.352;15.746;2024-03-07T07:25:12;6.40;99.90
13482;DHT22;6813;60.352;15.746;2024-03-07T07:30:16;7.00;99.90
13482;DHT22;6813;60.352;15.746;2024-03-07T07:32:43;7.20;99.90
13482;DHT22;6813;60.352;15.746;2024-03-07T07:35:09;7.30;99.90
13482;DHT22;6813;60.352;15.746;2024-03-07T07:37:39;7.40;99.90
13482;DHT22;6813;60.352;15.746;2024-03-07T07:40:10;7.20;99.90
13482;DHT22;6813;60.352;15.746;2024-03-07T07:42:43;7.10;99.90
13482;DHT22;6813;60.352;15.746;2024-03-07T07:45:10;7.20;99.90
13482;DHT22;6813;60.352;15.746;2024-03-07T07:47:39;7.20;99.90
13482;DHT22;6813;60.352;15.746;2024-03-07T07:50:10;7.30;99.90
13482;DHT22;6813;60.352;15.746;2024-03-07T07:52:55;7.40;99.90
13482;DHT22;6813;60.352;15.746;2024-03-07T07:55:25;7.50;99.90
13482;DHT22;6813;60.352;15.746;2024-03-07T07:57:59;7.80;99.90
13482;DHT22;6813;60.352;15.746;2024-03-07T08:00:29;8.10;99.90
13482;DHT22;6813;60.352;15.746;2024-03-07T08:05:23;8.00;99.50
13482;DHT22;6813;60.352;15.746;2024-03-07T08:07:53;8.10;99.90
13482;DHT22;6813;60.352;15.746;2024-03-07T08:10:21;8.30;99.20
13482;DHT22;6813;60.352;15.746;2024-03-07T08:12:48;8.30;98.90
13482;DHT22;6813;60.352;15.746;2024-03-07T08:15:15;8.30;98.30
13482;DHT22;6813;60.352;15.746;2024-03-07T08:17:45;8.50;99.00
13482;DHT22;6813;60.352;15.746;2024-03-07T08:20:12;8.50;98.40
13482;DHT22;6813;60.352;15.746;2024-03-07T08:22:42;8.60;98.60
13482;DHT22;6813;60.352;15.746;2024-03-07T08:25:10;8.70;98.60
13482;DHT22;6813;60.352;15.746;2024-03-07T08:27:41;8.80;97.70
13482;DHT22;6813;60.352;15.746;2024-03-07T08:30:11;8.90;98.10
13482;DHT22;6813;60.352;15.746;2024-03-07T08:32:45;9.00;97.90
13482;DHT22;6813;60.352;15.746;2024-03-07T08:35:12;8.90;97.50
13482;DHT22;6813;60.352;15.746;2024-03-07T08:37:52;8.90;96.80
13482;DHT22;6813;60.352;15.746;2024-03-07T08:40:24;9.10;98.00
13482;DHT22;6813;60.352;15.746;2024-03-07T08:42:52;9.20;97.30
13482;DHT22;6813;60.352;15.746;2024-03-07T08:45:19;9.20;97.00
13482;DHT22;6813;60.352;15.746;2024-03-07T08:47:47;9.20;96.90
13482;DHT22;6813;60.352;15.746;2024-03-07T08:50:14;9.20;96.70
13482;DHT22;6813;60.352;15.746;2024-03-07T08:52:41;9.10;96.70
13482;DHT22;6813;60.352;15.746;2024-03-07T08:55:08;9.00;96.00
13482;DHT22;6813;60.352;15.746;2024-03-07T08:57:38;8.90;96.30
13482;DHT22;6813;60.352;15.746;2024-03-07T09:00:05;9.00;96.70
13482;DHT22;6813;60.352;15.746;2024-03-07T09:02:35;9.20;96.70
13482;DHT22;6813;60.352;15.746;2024-03-07T09:05:02;9.50;96.50
13482;DHT22;6813;60.352;15.746;2024-03-07T09:07:28;9.60;95.90
13482;DHT22;6813;60.352;15.746;2024-03-07T09:09:55;9.80;95.40
13482;DHT22;6813;60.352;15.746;2024-03-07T09:12:21;9.70;94.30
13482;DHT22;6813;60.352;15.746;2024-03-07T09:14:47;9.90;94.90
13482;DHT22;6813;60.352;15.746;2024-03-07T09:17:12;9.90;95.10
13482;DHT22;6813;60.352;15.746;2024-03-07T09:19:38;9.90;94.30
13482;DHT22;6813;60.352;15.746;2024-03-07T09:22:04;9.90;93.90
13482;DHT22;6813;60.352;15.746;2024-03-07T09:24:33;10.00;93.40
13482;DHT22;6813;60.352;15.746;2024-03-07T09:27:00;9.90;93.10
13482;DHT22;6813;60.352;15.746;2024-03-07T09:29:26;9.90;93.10
13482;DHT22;6813;60.352;15.746;2024-03-07T09:31:53;9.80;93.30
13482;DHT22;6813;60.352;15.746;2024-03-07T09:34:20;9.80;93.30
13482;DHT22;6813;60.352;15.746;2024-03-07T09:36:47;9.90;93.10
13482;DHT22;6813;60.352;15.746;2024-03-07T09:39:14;9.90;93.10
13482;DHT22;6813;60.352;15.746;2024-03-07T09:41:41;9.90;92.90
13482;DHT22;6813;60.352;15.746;2024-03-07T09:44:14;10.00;92.20
13482;DHT22;6813;60.352;15.746;2024-03-07T09:46:40;10.00;92.60
13482;DHT22;6813;60.352;15.746;2024-03-07T09:49:07;9.90;93.00
13482;DHT22;6813;60.352;15.746;2024-03-07T09:51:35;9.90;92.80
13482;DHT22;6813;60.352;15.746;2024-03-07T09:54:01;9.80;93.00
13482;DHT22;6813;60.352;15.746;2024-03-07T09:56:28;9.80;92.70
13482;DHT22;6813;60.352;15.746;2024-03-07T09:58:57;9.90;91.70
13482;DHT22;6813;60.352;15.746;2024-03-07T10:01:26;10.10;91.70
13482;DHT22;6813;60.352;15.746;2024-03-07T10:04:00;10.10;90.40
13482;DHT22;6813;60.352;15.746;2024-03-07T10:06:43;10.10;91.30
13482;DHT22;6813;60.352;15.746;2024-03-07T10:09:11;10.20;91.40
13482;DHT22;6813;60.352;15.746;2024-03-07T10:11:42;10.30;91.10
13482;DHT22;6813;60.352;15.746;2024-03-07T10:14:09;10.30;90.30
13482;DHT22;6813;60.352;15.746;2024-03-07T10:16:36;10.20;89.50
13482;DHT22;6813;60.352;15.746;2024-03-07T10:19:05;10.20;90.30
13482;DHT22;6813;60.352;15.746;2024-03-07T10:21:33;10.10;90.00
13482;DHT22;6813;60.352;15.746;2024-03-07T10:24:05;10.00;90.70
13482;DHT22;6813;60.352;15.746;2024-03-07T10:26:35;10.00;90.10
13482;DHT22;6813;60.352;15.746;2024-03-07T10:29:04;10.00;89.00
13482;DHT22;6813;60.352;15.746;2024-03-07T10:31:31;10.10;90.80
13482;DHT22;6813;60.352;15.746;2024-03-07T10:34:06;10.00;90.30
13482;DHT22;6813;60.352;15.746;2024-03-07T10:36:33;10.10;90.60
13482;DHT22;6813;60.352;15.746;2024-03-07T10:39:01;10.20;90.20
13482;DHT22;6813;60.352;15.746;2024-03-07T10:41:48;10.30;89.40
13482;DHT22;6813;60.352;15.746;2024-03-07T10:46:46;10.30;87.20
13482;DHT22;6813;60.352;15.746;2024-03-07T10:49:20;10.30;87.60
13482;DHT22;6813;60.352;15.746;2024-03-07T10:52:00;10.30;87.90
13482;DHT22;6813;60.352;15.746;2024-03-07T10:54:36;10.30;88.70
13482;DHT22;6813;60.352;15.746;2024-03-07T10:57:20;10.30;86.40
13482;DHT22;6813;60.352;15.746;2024-03-07T10:59:56;10.30;87.20
13482;DHT22;6813;60.352;15.746;2024-03-07T11:04:53;10.40;88.80
13482;DHT22;6813;60.352;15.746;2024-03-07T11:07:20;10.40;87.30
13482;DHT22;6813;60.352;15.746;2024-03-07T11:09:49;10.40;86.90
13482;DHT22;6813;60.352;15.746;2024-03-07T11:12:19;10.40;86.70
13482;DHT22;6813;60.352;15.746;2024-03-07T11:14:47;10.40;85.80
13482;DHT22;6813;60.352;15.746;2024-03-07T11:17:15;10.40;86.20
13482;DHT22;6813;60.352;15.746;2024-03-07T11:19:41;10.40;85.40
13482;DHT22;6813;60.352;15.746;2024-03-07T11:22:08;10.50;85.60
13482;DHT22;6813;60.352;15.746;2024-03-07T11:24:43;10.50;85.80
13482;DHT22;6813;60.352;15.746;2024-03-07T11:27:11;10.50;85.30
13482;DHT22;6813;60.352;15.746;2024-03-07T11:29:41;10.50;85.40
13482;DHT22;6813;60.352;15.746;2024-03-07T11:32:11;10.50;85.00
13482;DHT22;6813;60.352;15.746;2024-03-07T11:34:38;10.50;84.50
13482;DHT22;6813;60.352;15.746;2024-03-07T11:37:07;10.50;84.30
13482;DHT22;6813;60.352;15.746;2024-03-07T11:39:46;10.40;84.30
13482;DHT22;6813;60.352;15.746;2024-03-07T11:42:43;10.40;84.20
13482;DHT22;6813;60.352;15.746;2024-03-07T11:45:10;10.40;83.70
13482;DHT22;6813;60.352;15.746;2024-03-07T11:47:46;10.40;84.10
13482;DHT22;6813;60.352;15.746;2024-03-07T11:50:11;10.30;83.80
13482;DHT22;6813;60.352;15.746;2024-03-07T11:52:38;10.30;84.10
13482;DHT22;6813;60.352;15.746;2024-03-07T11:55:12;10.20;83.40
13482;DHT22;6813;60.352;15.746;2024-03-07T11:57:40;10.00;83.60
13482;DHT22;6813;60.352;15.746;2024-03-07T12:00:10;10.00;83.80
13482;DHT22;6813;60.352;15.746;2024-03-07T12:02:39;9.90;85.80
13482;DHT22;6813;60.352;15.746;2024-03-07T12:05:05;9.90;85.70
13482;DHT22;6813;60.352;15.746;2024-03-07T12:07:32;9.80;84.90
13482;DHT22;6813;60.352;15.746;2024-03-07T12:09:59;9.80;86.30
13482;DHT22;6813;60.352;15.746;2024-03-07T12:12:29;9.80;86.30
13482;DHT22;6813;60.352;15.746;2024-03-07T12:14:54;9.80;86.80
13482;DHT22;6813;60.352;15.746;2024-03-07T12:17:21;9.80;86.60
13482;DHT22;6813;60.352;15.746;2024-03-07T12:19:47;9.80;87.10
13482;DHT22;6813;60.352;15.746;2024-03-07T12:22:13;9.80;87.40
13482;DHT22;6813;60.352;15.746;2024-03-07T12:24:41;9.80;87.80
13482;DHT22;6813;60.352;15.746;2024-03-07T12:27:12;9.80;86.60
13482;DHT22;6813;60.352;15.746;2024-03-07T12:29:39;9.80;87.90
13482;DHT22;6813;60.352;15.746;2024-03-07T12:32:06;9.80;87.60
13482;DHT22;6813;60.352;15.746;2024-03-07T12:34:34;9.80;87.10
13482;DHT22;6813;60.352;15.746;2024-03-07T12:37:03;9.80;86.70
13482;DHT22;6813;60.352;15.746;2024-03-07T12:39:32;9.80;86.50
13482;DHT22;6813;60.352;15.746;2024-03-07T12:42:04;9.80;87.20
13482;DHT22;6813;60.352;15.746;2024-03-07T12:44:43;9.80;86.10
13482;DHT22;6813;60.352;15.746;2024-03-07T12:47:14;9.80;86.00
13482;DHT22;6813;60.352;15.746;2024-03-07T12:49:41;9.70;86.70
13482;DHT22;6813;60.352;15.746;2024-03-07T12:52:07;9.70;85.70
13482;DHT22;6813;60.352;15.746;2024-03-07T12:54:36;9.70;86.80
13482;DHT22;6813;60.352;15.746;2024-03-07T12:57:11;9.70;85.90
13482;DHT22;6813;60.352;15.746;2024-03-07T12:59:41;9.70;87.10
13482;DHT22;6813;60.352;15.746;2024-03-07T13:02:10;9.70;88.50
13482;DHT22;6813;60.352;15.746;2024-03-07T13:04:36;9.70;88.80
13482;DHT22;6813;60.352;15.746;2024-03-07T13:07:05;9.60;87.60
13482;DHT22;6813;60.352;15.746;2024-03-07T13:09:35;9.60;89.30
13482;DHT22;6813;60.352;15.746;2024-03-07T13:12:01;9.60;90.30
13482;DHT22;6813;60.352;15.746;2024-03-07T13:14:31;9.60;84.60
13482;DHT22;6813;60.352;15.746;2024-03-07T13:17:01;9.60;87.10
13482;DHT22;6813;60.352;15.746;2024-03-07T13:19:28;9.70;89.10
13482;DHT22;6813;60.352;15.746;2024-03-07T13:21:54;9.70;88.50
13482;DHT22;6813;60.352;15.746;2024-03-07T13:24:21;9.80;88.50
13482;DHT22;6813;60.352;15.746;2024-03-07T13:26:47;9.80;88.30
13482;DHT22;6813;60.352;15.746;2024-03-07T13:29:16;9.80;88.20
13482;DHT22;6813;60.352;15.746;2024-03-07T13:31:44;9.80;85.30
13482;DHT22;6813;60.352;15.746;2024-03-07T13:34:10;9.80;85.90
13482;DHT22;6813;60.352;15.746;2024-03-07T13:36:42;9.70;87.20
13482;DHT22;6813;60.352;15.746;2024-03-07T13:39:09;9.70;88.90
13482;DHT22;6813;60.352;15.746;2024-03-07T13:41:42;9.70;88.10
13482;DHT22;6813;60.352;15.746;2024-03-07T13:44:08;9.80;89.30
13482;DHT22;6813;60.352;15.746;2024-03-07T13:46:34;9.70;90.20
13482;DHT22;6813;60.352;15.746;2024-03-07T13:49:01;9.70;90.30
13482;DHT22;6813;60.352;15.746;2024-03-07T13:51:38;9.80;90.50
13482;DHT22;6813;60.352;15.746;2024-03-07T13:54:06;9.80;90.60
13482;DHT22;6813;60.352;15.746;2024-03-07T14:11:26;10.00;91.10
13482;DHT22;6813;60.352;15.746;2024-03-07T14:30:55;9.80;87.50
13482;DHT22;6813;60.352;15.746;2024-03-07T14:33:35;9.80;87.70
13482;DHT22;6813;60.352;15.746;2024-03-07T14:36:14;9.80;89.80
13482;DHT22;6813;60.352;15.746;2024-03-07T14:41:15;9.80;89.20
13482;DHT22;6813;60.352;15.746;2024-03-07T14:43:42;9.80;89.70
13482;DHT22;6813;60.352;15.746;2024-03-07T14:46:10;9.80;90.40
13482;DHT22;6813;60.352;15.746;2024-03-07T14:48:39;9.80;90.50
13482;DHT22;6813;60.352;15.746;2024-03-07T14:51:07;9.80;90.60
13482;DHT22;6813;60.352;15.746;2024-03-07T14:53:34;9.80;90.40
13482;DHT22;6813;60.352;15.746;2024-03-07T14:56:00;9.70;88.10
13482;DHT22;6813;60.352;15.746;2024-03-07T14:58:26;9.70;89.20
13482;DHT22;6813;60.352;15.746;2024-03-07T15:00:52;9.80;91.80
13482;DHT22;6813;60.352;15.746;2024-03-07T15:03:20;9.80;90.80
13482;DHT22;6813;60.352;15.746;2024-03-07T15:05:46;9.80;91.10
13482;DHT22;6813;60.352;15.746;2024-03-07T15:08:15;9.80;91.00
13482;DHT22;6813;60.352;15.746;2024-03-07T15:10:45;9.70;90.90
13482;DHT22;6813;60.352;15.746;2024-03-07T15:13:12;9.70;90.70
13482;DHT22;6813;60.352;15.746;2024-03-07T15:15:39;9.60;87.00
13482;DHT22;6813;60.352;15.746;2024-03-07T15:18:06;9.60;89.10
13482;DHT22;6813;60.352;15.746;2024-03-07T15:20:32;9.60;85.40
13482;DHT22;6813;60.352;15.746;2024-03-07T15:23:01;9.50;88.20
13482;DHT22;6813;60.352;15.746;2024-03-07T15:25:29;9.50;90.10
13482;DHT22;6813;60.352;15.746;2024-03-07T15:27:59;9.50;90.80
13482;DHT22;6813;60.352;15.746;2024-03-07T15:30:25;9.50;90.20
13482;DHT22;6813;60.352;15.746;2024-03-07T15:32:57;9.50;89.90
13482;DHT22;6813;60.352;15.746;2024-03-07T15:35:24;9.50;91.10
13482;DHT22;6813;60.352;15.746;2024-03-07T15:37:51;9.40;88.60
13482;DHT22;6813;60.352;15.746;2024-03-07T15:40:17;9.50;90.30
13482;DHT22;6813;60.352;15.746;2024-03-07T15:42:47;9.50;91.00
13482;DHT22;6813;60.352;15.746;2024-03-07T15:45:21;9.70;93.00
13482;DHT22;6813;60.352;15.746;2024-03-07T15:47:49;10.20;91.70
13482;DHT22;6813;60.352;15.746;2024-03-07T15:50:15;10.30;80.10
13482;DHT22;6813;60.352;15.746;2024-03-07T15:52:45;10.30;86.80
13482;DHT22;6813;60.352;15.746;2024-03-07T15:55:12;10.10;81.70
13482;DHT22;6813;60.352;15.746;2024-03-07T15:57:49;9.90;81.50
13482;DHT22;6813;60.352;15.746;2024-03-07T16:00:16;9.70;77.60
13482;DHT22;6813;60.352;15.746;2024-03-07T16:02:58;9.60;82.90
13482;DHT22;6813;60.352;15.746;2024-03-07T16:05:32;9.50;80.40
13482;DHT22;6813;60.352;15.746;2024-03-07T16:07:59;9.40;76.60
13482;DHT22;6813;60.352;15.746;2024-03-07T16:10:27;9.30;79.30
13482;DHT22;6813;60.352;15.746;2024-03-07T16:12:56;9.10;79.20
13482;DHT22;6813;60.352;15.746;2024-03-07T16:15:23;9.10;77.90
13482;DHT22;6813;60.352;15.746;2024-03-07T16:17:52;8.80;75.50
13482;DHT22;6813;60.352;15.746;2024-03-07T16:20:30;8.70;77.50
13482;DHT22;6813;60.352;15.746;2024-03-07T16:22:56;8.60;79.80
13482;DHT22;6813;60.352;15.746;2024-03-07T16:25:23;8.60;77.90
13482;DHT22;6813;60.352;15.746;2024-03-07T16:27:50;8.50;80.40